sensor_id;sensor_type;location;lat;lon;timestamp;pressure;altitude;pressure_sealevel;temperature;humidity
49194;BME280;35029;50.804;12.866;2022-07-10T00:01:06;98247.34;;;13.39;88.47
49194;BME280;35029;50.804;12.866;2022-07-10T00:03:31;98241.97;;;13.32;87.83
49194;BME280;35029;50.804;12.866;2022-07-10T00:05:57;98257.78;;;13.33;89.74
49194;BME280;35029;50.804;12.866;2022-07-10T00:08:23;98259.41;;;13.34;88.23
49194;BME280;35029;50.804;12.866;2022-07-10T00:10:48;98248.13;;;13.26;86.90
49194;BME280;35029;50.804;12.866;2022-07-10T00:13:14;98242.00;;;13.25;87.72
49194;BME280;35029;50.804;12.866;2022-07-10T00:15:40;98260.00;;;13.23;87.32
49194;BME280;35029;50.804;12.866;2022-07-10T00:18:05;98260.19;;;13.22;89.58
49194;BME280;35029;50.804;12.866;2022-07-10T00:20:31;98267.75;;;13.18;90.92
49194;BME280;35029;50.804;12.866;2022-07-10T00:22:57;98267.91;;;13.10;91.82
49194;BME280;35029;50.804;12.866;2022-07-10T00:25:23;98270.19;;;13.13;92.46
49194;BME280;35029;50.804;12.866;2022-07-10T00:27:48;98262.41;;;13.11;92.30
49194;BME280;35029;50.804;12.866;2022-07-10T00:30:14;98267.50;;;13.06;92.90
49194;BME280;35029;50.804;12.866;2022-07-10T00:32:39;98271.75;;;13.00;93.13
49194;BME280;35029;50.804;12.866;2022-07-10T00:35:06;98283.00;;;12.96;93.65
49194;BME280;35029;50.804;12.866;2022-07-10T00:37:32;98282.16;;;12.89;92.40
49194;BME280;35029;50.804;12.866;2022-07-10T00:39:58;98266.56;;;12.85;88.86
49194;BME280;35029;50.804;12.866;2022-07-10T00:42:25;98273.81;;;12.98;87.53
49194;BME280;35029;50.804;12.866;2022-07-10T00:44:51;98279.13;;;12.98;88.80
49194;BME280;35029;50.804;12.866;2022-07-10T00:47:16;98279.09;;;12.92;90.72
49194;BME280;35029;50.804;12.866;2022-07-10T00:49:45;98276.00;;;12.88;89.31
49194;BME280;35029;50.804;12.866;2022-07-10T00:52:13;98273.59;;;12.93;86.82
49194;BME280;35029;50.804;12.866;2022-07-10T00:54:42;98275.81;;;12.90;87.06
49194;BME280;35029;50.804;12.866;2022-07-10T00:57:08;98262.06;;;12.79;86.38
49194;BME280;35029;50.804;12.866;2022-07-10T00:59:34;98274.16;;;12.82;85.27
49194;BME280;35029;50.804;12.866;2022-07-10T01:02:02;98274.34;;;12.80;83.77
49194;BME280;35029;50.804;12.866;2022-07-10T01:04:27;98283.56;;;12.84;84.51
49194;BME280;35029;50.804;12.866;2022-07-10T01:06:53;98278.59;;;12.75;83.89
49194;BME280;35029;50.804;12.866;2022-07-10T01:09:19;98277.00;;;12.80;82.89
49194;BME280;35029;50.804;12.866;2022-07-10T01:11:45;98278.59;;;12.75;83.44
49194;BME280;35029;50.804;12.866;2022-07-10T01:14:11;98266.28;;;12.67;84.05
49194;BME280;35029;50.804;12.866;2022-07-10T01:16:36;98268.22;;;12.51;83.80
49194;BME280;35029;50.804;12.866;2022-07-10T01:19:02;98262.72;;;12.53;85.19
49194;BME280;35029;50.804;12.866;2022-07-10T01:21:31;98261.53;;;12.56;84.35
49194;BME280;35029;50.804;12.866;2022-07-10T01:23:57;98266.22;;;12.54;83.88
49194;BME280;35029;50.804;12.866;2022-07-10T01:26:23;98246.09;;;12.44;83.32
49194;BME280;35029;50.804;12.866;2022-07-10T01:28:50;98258.47;;;12.59;82.53
49194;BME280;35029;50.804;12.866;2022-07-10T01:31:24;98261.66;;;12.47;82.58
49194;BME280;35029;50.804;12.866;2022-07-10T01:33:50;98261.63;;;12.41;82.68
49194;BME280;35029;50.804;12.866;2022-07-10T01:36:16;98252.00;;;12.40;82.59
49194;BME280;35029;50.804;12.866;2022-07-10T01:38:42;98252.78;;;12.33;82.53
49194;BME280;35029;50.804;12.866;2022-07-10T01:41:08;98253.81;;;12.39;82.50
49194;BME280;35029;50.804;12.866;2022-07-10T01:43:37;98258.53;;;12.37;82.38
49194;BME280;35029;50.804;12.866;2022-07-10T01:46:03;98251.72;;;12.28;81.48
49194;BME280;35029;50.804;12.866;2022-07-10T01:48:30;98261.13;;;12.30;81.00
49194;BME280;35029;50.804;12.866;2022-07-10T01:50:56;98240.88;;;12.29;80.12
49194;BME280;35029;50.804;12.866;2022-07-10T01:53:22;98257.28;;;12.33;80.77
49194;BME280;35029;50.804;12.866;2022-07-10T01:55:48;98248.28;;;12.34;78.20
49194;BME280;35029;50.804;12.866;2022-07-10T01:58:14;98240.72;;;12.38;78.88
49194;BME280;35029;50.804;12.866;2022-07-10T02:00:40;98238.28;;;12.36;79.40
49194;BME280;35029;50.804;12.866;2022-07-10T02:03:06;98242.59;;;12.37;80.48
49194;BME280;35029;50.804;12.866;2022-07-10T02:05:50;98244.94;;;12.25;81.60
49194;BME280;35029;50.804;12.866;2022-07-10T02:08:15;98239.22;;;12.22;81.16
49194;BME280;35029;50.804;12.866;2022-07-10T02:10:41;98236.91;;;12.18;80.85
49194;BME280;35029;50.804;12.866;2022-07-10T02:13:07;98211.91;;;12.06;82.99
49194;BME280;35029;50.804;12.866;2022-07-10T02:15:32;98248.59;;;12.17;82.84
49194;BME280;35029;50.804;12.866;2022-07-10T02:17:58;98234.03;;;12.13;80.43
49194;BME280;35029;50.804;12.866;2022-07-10T02:20:24;98240.94;;;12.08;80.37
49194;BME280;35029;50.804;12.866;2022-07-10T02:22:50;98198.25;;;11.88;81.75
49194;BME280;35029;50.804;12.866;2022-07-10T02:25:15;98221.72;;;12.06;82.39
49194;BME280;35029;50.804;12.866;2022-07-10T02:27:41;98221.06;;;12.04;80.22
49194;BME280;35029;50.804;12.866;2022-07-10T02:30:06;98229.94;;;12.11;80.95
49194;BME280;35029;50.804;12.866;2022-07-10T02:32:32;98228.75;;;12.20;80.65
49194;BME280;35029;50.804;12.866;2022-07-10T02:34:58;98227.69;;;12.14;80.90
49194;BME280;35029;50.804;12.866;2022-07-10T02:37:23;98217.06;;;12.14;80.96
49194;BME280;35029;50.804;12.866;2022-07-10T02:39:49;98223.84;;;12.17;81.50
49194;BME280;35029;50.804;12.866;2022-07-10T02:42:14;98211.59;;;12.23;79.52
49194;BME280;35029;50.804;12.866;2022-07-10T02:44:40;98202.06;;;12.00;83.39
49194;BME280;35029;50.804;12.866;2022-07-10T02:47:05;98218.09;;;12.13;82.98
49194;BME280;35029;50.804;12.866;2022-07-10T02:49:31;98198.75;;;11.98;84.25
49194;BME280;35029;50.804;12.866;2022-07-10T02:51:56;98213.88;;;11.97;81.69
49194;BME280;35029;50.804;12.866;2022-07-10T02:54:23;98215.09;;;11.95;83.35
49194;BME280;35029;50.804;12.866;2022-07-10T02:56:48;98211.97;;;11.91;83.76
49194;BME280;35029;50.804;12.866;2022-07-10T02:59:14;98211.75;;;11.93;83.09
49194;BME280;35029;50.804;12.866;2022-07-10T03:01:39;98211.75;;;11.93;82.71
49194;BME280;35029;50.804;12.866;2022-07-10T03:04:06;98194.16;;;11.85;84.56
49194;BME280;35029;50.804;12.866;2022-07-10T03:06:32;98210.34;;;11.90;82.96
49194;BME280;35029;50.804;12.866;2022-07-10T03:08:58;98187.38;;;11.82;82.21
49194;BME280;35029;50.804;12.866;2022-07-10T03:11:23;98202.97;;;11.92;83.75
49194;BME280;35029;50.804;12.866;2022-07-10T03:13:49;98200.81;;;11.96;82.73
49194;BME280;35029;50.804;12.866;2022-07-10T03:16:15;98197.47;;;11.94;81.25
49194;BME280;35029;50.804;12.866;2022-07-10T03:18:40;98203.25;;;11.97;80.79
49194;BME280;35029;50.804;12.866;2022-07-10T03:21:06;98193.69;;;12.03;80.55
49194;BME280;35029;50.804;12.866;2022-07-10T03:23:31;98193.03;;;12.01;80.59
49194;BME280;35029;50.804;12.866;2022-07-10T03:25:57;98166.59;;;11.93;80.62
49194;BME280;35029;50.804;12.866;2022-07-10T03:28:22;98192.25;;;12.00;80.60
49194;BME280;35029;50.804;12.866;2022-07-10T03:30:48;98185.91;;;12.02;81.48
49194;BME280;35029;50.804;12.866;2022-07-10T03:33:14;98189.78;;;11.99;80.14
49194;BME280;35029;50.804;12.866;2022-07-10T03:35:39;98191.63;;;11.98;80.94
49194;BME280;35029;50.804;12.866;2022-07-10T03:38:05;98184.66;;;11.97;80.85
49194;BME280;35029;50.804;12.866;2022-07-10T03:40:31;98188.97;;;11.98;80.66
49194;BME280;35029;50.804;12.866;2022-07-10T03:42:57;98191.78;;;11.97;80.38
49194;BME280;35029;50.804;12.866;2022-07-10T03:45:22;98187.50;;;11.96;79.84
49194;BME280;35029;50.804;12.866;2022-07-10T03:47:48;98185.38;;;11.91;79.82
49194;BME280;35029;50.804;12.866;2022-07-10T03:50:13;98187.63;;;11.88;80.99
49194;BME280;35029;50.804;12.866;2022-07-10T03:52:39;98180.34;;;11.96;80.87
49194;BME280;35029;50.804;12.866;2022-07-10T03:55:05;98185.06;;;11.94;81.29
49194;BME280;35029;50.804;12.866;2022-07-10T03:57:31;98189.09;;;11.90;83.18
49194;BME280;35029;50.804;12.866;2022-07-10T04:00:15;98181.47;;;11.87;82.46
49194;BME280;35029;50.804;12.866;2022-07-10T04:02:40;98180.72;;;11.93;81.79
49194;BME280;35029;50.804;12.866;2022-07-10T04:05:07;98176.28;;;12.00;80.88
49194;BME280;35029;50.804;12.866;2022-07-10T04:07:34;98181.59;;;12.00;81.38
49194;BME280;35029;50.804;12.866;2022-07-10T04:09:59;98189.97;;;11.97;80.65
49194;BME280;35029;50.804;12.866;2022-07-10T04:12:25;98179.59;;;12.03;81.98
49194;BME280;35029;50.804;12.866;2022-07-10T04:14:51;98181.25;;;12.10;80.63
49194;BME280;35029;50.804;12.866;2022-07-10T04:17:20;98186.00;;;12.15;81.74
49194;BME280;35029;50.804;12.866;2022-07-10T04:19:45;98167.88;;;11.97;82.35
49194;BME280;35029;50.804;12.866;2022-07-10T04:22:11;98162.00;;;12.02;81.28
49194;BME280;35029;50.804;12.866;2022-07-10T04:24:38;98184.72;;;12.04;80.10
49194;BME280;35029;50.804;12.866;2022-07-10T04:27:04;98177.50;;;11.98;80.47
49194;BME280;35029;50.804;12.866;2022-07-10T04:29:29;98178.72;;;11.95;79.90
49194;BME280;35029;50.804;12.866;2022-07-10T04:31:55;98176.88;;;11.96;81.50
49194;BME280;35029;50.804;12.866;2022-07-10T04:34:20;98177.09;;;12.01;81.22
49194;BME280;35029;50.804;12.866;2022-07-10T04:36:46;98173.03;;;12.05;81.82
49194;BME280;35029;50.804;12.866;2022-07-10T04:39:11;98169.78;;;12.03;80.10
49194;BME280;35029;50.804;12.866;2022-07-10T04:41:37;98178.25;;;12.13;78.92
49194;BME280;35029;50.804;12.866;2022-07-10T04:44:03;98172.69;;;12.08;78.03
49194;BME280;35029;50.804;12.866;2022-07-10T04:46:28;98181.84;;;12.06;79.16
49194;BME280;35029;50.804;12.866;2022-07-10T04:48:54;98176.59;;;12.12;79.45
49194;BME280;35029;50.804;12.866;2022-07-10T04:51:20;98168.81;;;12.11;80.51
49194;BME280;35029;50.804;12.866;2022-07-10T04:53:45;98176.16;;;12.09;80.86
49194;BME280;35029;50.804;12.866;2022-07-10T04:56:11;98170.78;;;12.02;79.86
49194;BME280;35029;50.804;12.866;2022-07-10T04:58:36;98178.38;;;12.05;79.16
49194;BME280;35029;50.804;12.866;2022-07-10T05:01:02;98167.16;;;12.10;78.66
49194;BME280;35029;50.804;12.866;2022-07-10T05:03:28;98178.69;;;12.24;78.16
49194;BME280;35029;50.804;12.866;2022-07-10T05:05:54;98186.06;;;12.22;78.71
49194;BME280;35029;50.804;12.866;2022-07-10T05:08:19;98178.09;;;12.28;79.39
49194;BME280;35029;50.804;12.866;2022-07-10T05:10:45;98189.38;;;12.30;78.42
49194;BME280;35029;50.804;12.866;2022-07-10T05:13:11;98196.53;;;12.30;78.14
49194;BME280;35029;50.804;12.866;2022-07-10T05:15:38;98190.00;;;12.32;78.54
49194;BME280;35029;50.804;12.866;2022-07-10T05:18:04;98193.28;;;12.34;78.01
49194;BME280;35029;50.804;12.866;2022-07-10T05:20:29;98174.88;;;12.33;77.78
49194;BME280;35029;50.804;12.866;2022-07-10T05:22:55;98193.53;;;12.40;76.89
49194;BME280;35029;50.804;12.866;2022-07-10T05:25:21;98181.63;;;12.36;78.47
49194;BME280;35029;50.804;12.866;2022-07-10T05:27:47;98192.03;;;12.30;77.49
49194;BME280;35029;50.804;12.866;2022-07-10T05:30:12;98188.59;;;12.37;76.29
49194;BME280;35029;50.804;12.866;2022-07-10T05:32:58;98193.03;;;12.29;76.07
49194;BME280;35029;50.804;12.866;2022-07-10T05:35:25;98192.63;;;12.26;76.79
49194;BME280;35029;50.804;12.866;2022-07-10T05:37:52;98175.69;;;12.33;77.40
49194;BME280;35029;50.804;12.866;2022-07-10T05:40:18;98181.72;;;12.49;77.30
49194;BME280;35029;50.804;12.866;2022-07-10T05:42:43;98198.06;;;12.52;77.83
49194;BME280;35029;50.804;12.866;2022-07-10T05:45:11;98187.06;;;12.62;76.24
49194;BME280;35029;50.804;12.866;2022-07-10T05:47:37;98190.16;;;12.66;75.48
49194;BME280;35029;50.804;12.866;2022-07-10T05:50:04;98179.78;;;12.78;76.99
49194;BME280;35029;50.804;12.866;2022-07-10T05:52:30;98160.75;;;12.74;74.62
49194;BME280;35029;50.804;12.866;2022-07-10T05:54:56;98177.19;;;13.05;75.56
49194;BME280;35029;50.804;12.866;2022-07-10T05:57:23;98170.63;;;13.00;74.54
49194;BME280;35029;50.804;12.866;2022-07-10T05:59:49;98179.47;;;13.01;75.90
49194;BME280;35029;50.804;12.866;2022-07-10T06:02:15;98187.25;;;13.02;75.22
49194;BME280;35029;50.804;12.866;2022-07-10T06:04:41;98178.03;;;12.98;75.67
49194;BME280;35029;50.804;12.866;2022-07-10T06:07:07;98190.97;;;13.22;75.31
49194;BME280;35029;50.804;12.866;2022-07-10T06:09:32;98180.28;;;13.08;76.66
49194;BME280;35029;50.804;12.866;2022-07-10T06:11:58;98191.38;;;13.12;75.77
49194;BME280;35029;50.804;12.866;2022-07-10T06:14:24;98188.88;;;13.04;75.80
49194;BME280;35029;50.804;12.866;2022-07-10T06:16:49;98187.44;;;13.01;76.42
49194;BME280;35029;50.804;12.866;2022-07-10T06:19:14;98191.91;;;12.87;76.12
49194;BME280;35029;50.804;12.866;2022-07-10T06:21:42;98206.13;;;12.66;78.79
49194;BME280;35029;50.804;12.866;2022-07-10T06:24:08;98204.03;;;12.55;80.69
49194;BME280;35029;50.804;12.866;2022-07-10T06:26:34;98213.19;;;12.45;82.48
49194;BME280;35029;50.804;12.866;2022-07-10T06:29:00;98215.84;;;12.17;83.05
49194;BME280;35029;50.804;12.866;2022-07-10T06:31:25;98200.91;;;12.09;85.28
49194;BME280;35029;50.804;12.866;2022-07-10T06:33:51;98193.63;;;11.96;84.53
49194;BME280;35029;50.804;12.866;2022-07-10T06:36:16;98204.56;;;12.08;87.76
49194;BME280;35029;50.804;12.866;2022-07-10T06:38:42;98208.31;;;12.21;86.66
49194;BME280;35029;50.804;12.866;2022-07-10T06:41:07;98198.78;;;12.33;86.24
49194;BME280;35029;50.804;12.866;2022-07-10T06:43:33;98203.44;;;12.59;85.76
49194;BME280;35029;50.804;12.866;2022-07-10T06:45:59;98201.72;;;12.87;85.26
49194;BME280;35029;50.804;12.866;2022-07-10T06:48:26;98161.56;;;12.68;84.02
49194;BME280;35029;50.804;12.866;2022-07-10T06:50:52;98206.63;;;12.83;84.35
49194;BME280;35029;50.804;12.866;2022-07-10T06:53:17;98191.63;;;12.68;86.39
49194;BME280;35029;50.804;12.866;2022-07-10T06:55:43;98193.91;;;12.78;86.64
49194;BME280;35029;50.804;12.866;2022-07-10T06:58:08;98199.88;;;12.87;84.85
49194;BME280;35029;50.804;12.866;2022-07-10T07:00:34;98199.88;;;12.87;84.10
49194;BME280;35029;50.804;12.866;2022-07-10T07:03:00;98196.00;;;12.83;83.42
49194;BME280;35029;50.804;12.866;2022-07-10T07:05:25;98207.41;;;12.77;83.19
49194;BME280;35029;50.804;12.866;2022-07-10T07:07:50;98206.84;;;12.95;82.89
49194;BME280;35029;50.804;12.866;2022-07-10T07:10:18;98214.78;;;12.81;80.77
49194;BME280;35029;50.804;12.866;2022-07-10T07:12:43;98204.16;;;12.88;80.74
49194;BME280;35029;50.804;12.866;2022-07-10T07:15:09;98217.47;;;12.88;82.04
49194;BME280;35029;50.804;12.866;2022-07-10T07:17:41;98211.59;;;12.99;80.31
49194;BME280;35029;50.804;12.866;2022-07-10T07:20:24;98219.19;;;13.09;80.53
49194;BME280;35029;50.804;12.866;2022-07-10T07:23:08;98208.75;;;13.08;79.59
49194;BME280;35029;50.804;12.866;2022-07-10T07:25:39;98209.94;;;12.98;79.14
49194;BME280;35029;50.804;12.866;2022-07-10T07:28:08;98209.31;;;12.96;80.46
49194;BME280;35029;50.804;12.866;2022-07-10T07:30:33;98200.38;;;13.17;80.11
49194;BME280;35029;50.804;12.866;2022-07-10T07:32:59;98212.06;;;13.16;78.95
49194;BME280;35029;50.804;12.866;2022-07-10T07:35:24;98211.63;;;13.13;81.14
49194;BME280;35029;50.804;12.866;2022-07-10T07:37:51;98203.63;;;13.13;81.89
49194;BME280;35029;50.804;12.866;2022-07-10T07:40:21;98201.31;;;12.90;81.14
49194;BME280;35029;50.804;12.866;2022-07-10T07:42:52;98205.41;;;12.92;82.54
49194;BME280;35029;50.804;12.866;2022-07-10T07:45:18;98189.41;;;12.79;82.60
49194;BME280;35029;50.804;12.866;2022-07-10T07:47:56;98204.53;;;12.78;84.65
49194;BME280;35029;50.804;12.866;2022-07-10T07:50:32;98209.44;;;12.68;86.70
49194;BME280;35029;50.804;12.866;2022-07-10T07:52:59;98204.44;;;12.58;88.20
49194;BME280;35029;50.804;12.866;2022-07-10T07:55:25;98220.16;;;12.46;87.88
49194;BME280;35029;50.804;12.866;2022-07-10T07:57:52;98217.84;;;12.37;89.65
49194;BME280;35029;50.804;12.866;2022-07-10T08:00:19;98230.94;;;12.38;90.37
49194;BME280;35029;50.804;12.866;2022-07-10T08:02:49;98225.19;;;12.34;89.71
49194;BME280;35029;50.804;12.866;2022-07-10T08:05:15;98226.88;;;11.92;87.66
49194;BME280;35029;50.804;12.866;2022-07-10T08:07:43;98224.69;;;11.74;89.07
49194;BME280;35029;50.804;12.866;2022-07-10T08:10:12;98230.63;;;11.55;88.34
49194;BME280;35029;50.804;12.866;2022-07-10T08:12:38;98234.34;;;11.17;87.20
49194;BME280;35029;50.804;12.866;2022-07-10T08:15:07;98229.06;;;11.39;91.10
49194;BME280;35029;50.804;12.866;2022-07-10T08:17:33;98230.22;;;11.73;91.53
49194;BME280;35029;50.804;12.866;2022-07-10T08:19:59;98223.38;;;11.85;89.73
49194;BME280;35029;50.804;12.866;2022-07-10T08:22:24;98223.16;;;12.08;88.89
49194;BME280;35029;50.804;12.866;2022-07-10T08:24:50;98219.44;;;12.03;89.55
49194;BME280;35029;50.804;12.866;2022-07-10T08:27:15;98216.84;;;12.09;89.55
49194;BME280;35029;50.804;12.866;2022-07-10T08:29:41;98204.53;;;12.02;88.77
49194;BME280;35029;50.804;12.866;2022-07-10T08:32:07;98214.91;;;11.96;89.49
49194;BME280;35029;50.804;12.866;2022-07-10T08:34:35;98224.56;;;11.82;89.12
49194;BME280;35029;50.804;12.866;2022-07-10T08:37:01;98229.63;;;11.77;90.00
49194;BME280;35029;50.804;12.866;2022-07-10T08:39:27;98219.44;;;11.81;89.98
49194;BME280;35029;50.804;12.866;2022-07-10T08:41:52;98218.91;;;11.92;89.91
49194;BME280;35029;50.804;12.866;2022-07-10T08:44:19;98219.44;;;12.03;90.10
49194;BME280;35029;50.804;12.866;2022-07-10T08:46:45;98223.44;;;12.20;90.30
49194;BME280;35029;50.804;12.866;2022-07-10T08:49:11;98226.28;;;12.18;90.17
49194;BME280;35029;50.804;12.866;2022-07-10T08:51:41;98209.28;;;12.13;91.18
49194;BME280;35029;50.804;12.866;2022-07-10T08:54:07;98236.97;;;12.25;92.26
49194;BME280;35029;50.804;12.866;2022-07-10T08:56:34;98229.25;;;12.30;92.06
49194;BME280;35029;50.804;12.866;2022-07-10T08:59:01;98225.56;;;12.31;92.93
49194;BME280;35029;50.804;12.866;2022-07-10T09:01:27;98236.81;;;12.33;90.91
49194;BME280;35029;50.804;12.866;2022-07-10T09:03:52;98217.25;;;12.41;91.55
49194;BME280;35029;50.804;12.866;2022-07-10T09:06:18;98222.69;;;12.61;90.98
49194;BME280;35029;50.804;12.866;2022-07-10T09:09:04;98222.53;;;12.70;93.17
49194;BME280;35029;50.804;12.866;2022-07-10T09:11:31;98229.25;;;12.65;91.76
49194;BME280;35029;50.804;12.866;2022-07-10T09:14:02;98215.59;;;12.75;91.32
49194;BME280;35029;50.804;12.866;2022-07-10T09:16:34;98219.13;;;12.89;92.28
49194;BME280;35029;50.804;12.866;2022-07-10T09:21:54;98217.50;;;13.50;90.89
49194;BME280;35029;50.804;12.866;2022-07-10T09:24:20;98210.34;;;13.84;89.28
49194;BME280;35029;50.804;12.866;2022-07-10T09:27:00;98215.22;;;14.20;87.27
49194;BME280;35029;50.804;12.866;2022-07-10T09:29:26;98205.59;;;14.26;84.47
49194;BME280;35029;50.804;12.866;2022-07-10T09:31:54;98207.97;;;14.61;82.64
49194;BME280;35029;50.804;12.866;2022-07-10T09:34:40;98206.53;;;14.72;81.00
49194;BME280;35029;50.804;12.866;2022-07-10T09:37:27;98205.22;;;14.95;80.00
49194;BME280;35029;50.804;12.866;2022-07-10T09:40:07;98202.47;;;15.15;79.52
49194;BME280;35029;50.804;12.866;2022-07-10T09:42:40;98203.38;;;14.95;75.91
49194;BME280;35029;50.804;12.866;2022-07-10T09:50:30;98204.22;;;15.28;70.78
49194;BME280;35029;50.804;12.866;2022-07-10T09:52:58;98196.97;;;15.03;71.29
49194;BME280;35029;50.804;12.866;2022-07-10T09:55:25;98198.88;;;14.89;72.41
49194;BME280;35029;50.804;12.866;2022-07-10T09:57:54;98199.78;;;15.15;75.23
49194;BME280;35029;50.804;12.866;2022-07-10T10:00:23;98192.09;;;14.93;71.92
49194;BME280;35029;50.804;12.866;2022-07-10T10:02:54;98200.56;;;14.83;70.73
49194;BME280;35029;50.804;12.866;2022-07-10T10:05:22;98208.56;;;14.83;73.84
49194;BME280;35029;50.804;12.866;2022-07-10T10:07:51;98207.19;;;14.67;72.01
49194;BME280;35029;50.804;12.866;2022-07-10T10:10:17;98206.75;;;14.70;72.07
49194;BME280;35029;50.804;12.866;2022-07-10T10:12:48;98208.00;;;14.48;71.54
49194;BME280;35029;50.804;12.866;2022-07-10T10:15:17;98212.34;;;14.35;74.87
49194;BME280;35029;50.804;12.866;2022-07-10T10:17:45;98204.34;;;14.35;74.80
49194;BME280;35029;50.804;12.866;2022-07-10T10:20:11;98208.88;;;14.28;75.46
49194;BME280;35029;50.804;12.866;2022-07-10T10:22:56;98211.16;;;14.11;74.56
49194;BME280;35029;50.804;12.866;2022-07-10T10:25:26;98211.16;;;13.98;71.35
49194;BME280;35029;50.804;12.866;2022-07-10T10:27:53;98206.22;;;14.01;72.26
49194;BME280;35029;50.804;12.866;2022-07-10T10:30:20;98207.28;;;14.00;73.10
49194;BME280;35029;50.804;12.866;2022-07-10T10:32:46;98217.50;;;14.17;72.35
49194;BME280;35029;50.804;12.866;2022-07-10T10:35:45;98207.84;;;14.29;70.49
49194;BME280;35029;50.804;12.866;2022-07-10T10:38:14;98217.84;;;14.54;72.70
49194;BME280;35029;50.804;12.866;2022-07-10T10:40:40;98163.91;;;14.45;68.50
49194;BME280;35029;50.804;12.866;2022-07-10T10:43:22;98178.81;;;14.80;68.72
49194;BME280;35029;50.804;12.866;2022-07-10T10:45:49;98192.94;;;14.80;67.73
49194;BME280;35029;50.804;12.866;2022-07-10T10:48:16;98188.63;;;14.86;68.58
49194;BME280;35029;50.804;12.866;2022-07-10T10:50:52;98209.91;;;14.99;64.04
49194;BME280;35029;50.804;12.866;2022-07-10T10:53:25;98217.53;;;15.02;64.47
49194;BME280;35029;50.804;12.866;2022-07-10T10:58:46;98213.44;;;14.93;60.88
49194;BME280;35029;50.804;12.866;2022-07-10T11:09:25;98218.41;;;14.83;63.76
49194;BME280;35029;50.804;12.866;2022-07-10T11:11:58;98225.19;;;14.79;63.73
49194;BME280;35029;50.804;12.866;2022-07-10T11:14:24;98228.47;;;14.81;64.86
49194;BME280;35029;50.804;12.866;2022-07-10T11:16:57;98217.56;;;14.89;63.54
49194;BME280;35029;50.804;12.866;2022-07-10T11:19:24;98215.00;;;15.08;63.31
49194;BME280;35029;50.804;12.866;2022-07-10T11:24:49;98207.22;;;15.45;64.89
49194;BME280;35029;50.804;12.866;2022-07-10T11:27:29;98211.09;;;15.49;64.66
49194;BME280;35029;50.804;12.866;2022-07-10T11:29:59;98209.25;;;15.49;61.07
49194;BME280;35029;50.804;12.866;2022-07-10T11:32:26;98206.25;;;15.64;65.16
49194;BME280;35029;50.804;12.866;2022-07-10T11:34:52;98206.81;;;15.41;60.87
49194;BME280;35029;50.804;12.866;2022-07-10T11:37:18;98204.59;;;15.38;60.56
49194;BME280;35029;50.804;12.866;2022-07-10T11:39:43;98209.97;;;15.31;60.50
49194;BME280;35029;50.804;12.866;2022-07-10T11:42:09;98207.41;;;15.43;60.63
49194;BME280;35029;50.804;12.866;2022-07-10T11:44:35;98214.31;;;15.58;59.90
49194;BME280;35029;50.804;12.866;2022-07-10T11:47:01;98202.44;;;15.79;59.87
49194;BME280;35029;50.804;12.866;2022-07-10T11:49:28;98205.03;;;15.92;60.18
49194;BME280;35029;50.804;12.866;2022-07-10T11:51:54;98203.72;;;16.01;57.20
49194;BME280;35029;50.804;12.866;2022-07-10T11:54:25;98195.75;;;15.95;57.97
49194;BME280;35029;50.804;12.866;2022-07-10T11:56:52;98213.50;;;16.14;59.26
49194;BME280;35029;50.804;12.866;2022-07-10T11:59:24;98208.28;;;16.19;58.33
49194;BME280;35029;50.804;12.866;2022-07-10T12:01:55;98217.16;;;16.20;56.86
49194;BME280;35029;50.804;12.866;2022-07-10T12:04:24;98209.84;;;16.09;58.00
49194;BME280;35029;50.804;12.866;2022-07-10T12:06:52;98195.25;;;15.79;58.92
49194;BME280;35029;50.804;12.866;2022-07-10T12:09:20;98201.16;;;15.88;57.75
49194;BME280;35029;50.804;12.866;2022-07-10T12:12:05;98209.53;;;15.98;60.29
49194;BME280;35029;50.804;12.866;2022-07-10T12:14:32;98213.88;;;16.18;59.91
49194;BME280;35029;50.804;12.866;2022-07-10T12:16:59;98207.59;;;16.05;58.63
49194;BME280;35029;50.804;12.866;2022-07-10T12:19:27;98200.41;;;16.06;60.71
49194;BME280;35029;50.804;12.866;2022-07-10T12:21:53;98207.75;;;15.85;60.33
49194;BME280;35029;50.804;12.866;2022-07-10T12:24:20;98197.38;;;15.70;60.73
49194;BME280;35029;50.804;12.866;2022-07-10T12:26:46;98195.00;;;15.55;61.11
49194;BME280;35029;50.804;12.866;2022-07-10T12:29:20;98197.53;;;15.50;62.96
49194;BME280;35029;50.804;12.866;2022-07-10T12:31:48;98204.44;;;15.26;63.18
49194;BME280;35029;50.804;12.866;2022-07-10T12:34:15;98204.50;;;15.13;62.50
49194;BME280;35029;50.804;12.866;2022-07-10T12:36:50;98210.53;;;15.01;62.66
49194;BME280;35029;50.804;12.866;2022-07-10T12:39:21;98213.97;;;15.09;62.92
49194;BME280;35029;50.804;12.866;2022-07-10T12:42:06;98215.53;;;15.30;65.89
49194;BME280;35029;50.804;12.866;2022-07-10T12:44:39;98211.38;;;15.41;62.83
49194;BME280;35029;50.804;12.866;2022-07-10T12:47:13;98211.09;;;15.49;61.87
49194;BME280;35029;50.804;12.866;2022-07-10T12:52:30;98204.41;;;15.97;61.66
49194;BME280;35029;50.804;12.866;2022-07-10T12:55:14;98205.09;;;16.11;57.58
49194;BME280;35029;50.804;12.866;2022-07-10T12:57:58;98198.44;;;16.38;58.17
49194;BME280;35029;50.804;12.866;2022-07-10T13:00:33;98204.69;;;16.51;55.36
49194;BME280;35029;50.804;12.866;2022-07-10T13:03:18;98198.75;;;16.67;57.75
49194;BME280;35029;50.804;12.866;2022-07-10T13:05:44;98194.38;;;16.73;55.61
49194;BME280;35029;50.804;12.866;2022-07-10T13:08:20;98204.28;;;16.54;55.91
49194;BME280;35029;50.804;12.866;2022-07-10T13:10:55;98207.22;;;16.64;54.83
49194;BME280;35029;50.804;12.866;2022-07-10T13:13:21;98199.28;;;16.58;53.75
49194;BME280;35029;50.804;12.866;2022-07-10T13:15:48;98212.06;;;16.55;55.29
49194;BME280;35029;50.804;12.866;2022-07-10T13:18:20;98191.03;;;16.41;55.68